Terminal Aerodrome Forecast
Issued by NWS

Home | Current Version | Previous Version | Text Only | Print | Product List | Glossary Off
Versions: 1 2 3 4 5 6 7 8 9 10 11 12 13 14

000
FTUS43 KBIS 301100
TAFJMS
TAF
KJMS 301132Z 3012/3112 34004KT P6SM VCFG SKC
      TEMPO 3012/3014 2SM BR SCT002
     FM301800 33007KT P6SM FEW050
     FM310200 30003KT P6SM SKC=

USA.gov is the U.S. government's official web portal to all federal, state and local government web resources and services.